Terminal Aerodrome Forecast
Issued by NWS

Home | Current Version | Previous Version | Text Only | Print | Product List | Glossary On
Versions: 1 2 3 4 5 6 7 8 9 10 11 12 13 14 15 16 17 18 19 20 21 22 23 24 25 26 27 28 29 30 31 32 33 34
000
FTUS43 KGRB 271708 AAB
TAFATW
TAF AMD
KATW 271708Z 2717/2812 27012G20KT 6SM -RA BR OVC009
      TEMPO 2717/2720 3SM -RASN OVC005
     FM272000 26014G23KT P6SM OVC015
     FM280000 25010G17KT P6SM BKN024
     FM280600 25008KT P6SM SCT028
     FM281000 25006KT P6SM SCT040=

USA.gov is the U.S. government's official web portal to all federal, state and local government web resources and services.